sensor_id;sensor_type;location;lat;lon;timestamp;P1;durP1;ratioP1;P2;durP2;ratioP2
19569;SDS011;9931;51.458;7.256;2024-03-07T00:01:16;104.35;;;32.33;;
19569;SDS011;9931;51.458;7.256;2024-03-07T00:03:41;77.75;;;30.45;;
19569;SDS011;9931;51.458;7.256;2024-03-07T00:06:07;83.93;;;31.20;;
19569;SDS011;9931;51.458;7.256;2024-03-07T00:08:33;72.28;;;30.42;;
19569;SDS011;9931;51.458;7.256;2024-03-07T00:10:58;70.17;;;30.77;;
19569;SDS011;9931;51.458;7.256;2024-03-07T00:13:24;106.43;;;32.78;;
19569;SDS011;9931;51.458;7.256;2024-03-07T00:15:49;113.22;;;33.05;;
19569;SDS011;9931;51.458;7.256;2024-03-07T00:18:14;117.83;;;33.57;;
19569;SDS011;9931;51.458;7.256;2024-03-07T00:20:41;94.95;;;31.95;;
19569;SDS011;9931;51.458;7.256;2024-03-07T00:23:07;69.70;;;30.42;;
19569;SDS011;9931;51.458;7.256;2024-03-07T00:25:33;65.70;;;30.15;;
19569;SDS011;9931;51.458;7.256;2024-03-07T00:27:59;65.37;;;30.10;;
19569;SDS011;9931;51.458;7.256;2024-03-07T00:30:28;83.70;;;31.10;;
19569;SDS011;9931;51.458;7.256;2024-03-07T00:32:54;101.65;;;32.35;;
19569;SDS011;9931;51.458;7.256;2024-03-07T00:35:20;66.07;;;29.90;;
19569;SDS011;9931;51.458;7.256;2024-03-07T00:37:45;61.60;;;29.67;;
19569;SDS011;9931;51.458;7.256;2024-03-07T00:40:11;59.97;;;29.63;;
19569;SDS011;9931;51.458;7.256;2024-03-07T00:42:36;67.65;;;29.65;;
19569;SDS011;9931;51.458;7.256;2024-03-07T00:45:01;65.18;;;29.25;;
19569;SDS011;9931;51.458;7.256;2024-03-07T00:47:28;72.53;;;30.27;;
19569;SDS011;9931;51.458;7.256;2024-03-07T00:49:54;67.43;;;29.85;;
19569;SDS011;9931;51.458;7.256;2024-03-07T00:52:19;94.43;;;31.05;;
19569;SDS011;9931;51.458;7.256;2024-03-07T00:54:44;103.55;;;31.48;;
19569;SDS011;9931;51.458;7.256;2024-03-07T00:57:10;63.67;;;28.92;;
19569;SDS011;9931;51.458;7.256;2024-03-07T00:59:36;59.83;;;28.63;;
19569;SDS011;9931;51.458;7.256;2024-03-07T01:02:01;97.70;;;31.35;;
19569;SDS011;9931;51.458;7.256;2024-03-07T01:04:26;103.88;;;31.13;;
19569;SDS011;9931;51.458;7.256;2024-03-07T01:06:56;69.18;;;30.20;;
19569;SDS011;9931;51.458;7.256;2024-03-07T01:09:21;62.72;;;28.90;;
19569;SDS011;9931;51.458;7.256;2024-03-07T01:11:48;65.85;;;28.50;;
19569;SDS011;9931;51.458;7.256;2024-03-07T01:14:14;107.88;;;31.75;;
19569;SDS011;9931;51.458;7.256;2024-03-07T01:16:39;68.63;;;31.60;;
19569;SDS011;9931;51.458;7.256;2024-03-07T01:19:05;112.60;;;31.70;;
19569;SDS011;9931;51.458;7.256;2024-03-07T01:21:33;68.80;;;36.45;;
19569;SDS011;9931;51.458;7.256;2024-03-07T01:23:58;65.05;;;29.05;;
19569;SDS011;9931;51.458;7.256;2024-03-07T01:26:25;72.18;;;29.27;;
19569;SDS011;9931;51.458;7.256;2024-03-07T01:28:50;73.70;;;29.80;;
19569;SDS011;9931;51.458;7.256;2024-03-07T01:31:15;79.63;;;30.00;;
19569;SDS011;9931;51.458;7.256;2024-03-07T01:33:40;59.07;;;28.97;;
19569;SDS011;9931;51.458;7.256;2024-03-07T01:36:06;64.83;;;29.23;;
19569;SDS011;9931;51.458;7.256;2024-03-07T01:38:31;65.47;;;28.88;;
19569;SDS011;9931;51.458;7.256;2024-03-07T01:40:56;66.90;;;29.40;;
19569;SDS011;9931;51.458;7.256;2024-03-07T01:43:21;75.80;;;29.23;;
19569;SDS011;9931;51.458;7.256;2024-03-07T01:45:46;71.93;;;29.30;;
19569;SDS011;9931;51.458;7.256;2024-03-07T01:48:12;75.22;;;29.23;;
19569;SDS011;9931;51.458;7.256;2024-03-07T01:50:39;62.47;;;28.73;;
19569;SDS011;9931;51.458;7.256;2024-03-07T01:53:08;59.72;;;28.30;;
19569;SDS011;9931;51.458;7.256;2024-03-07T01:55:34;106.32;;;31.35;;
19569;SDS011;9931;51.458;7.256;2024-03-07T01:58:00;63.58;;;28.67;;
19569;SDS011;9931;51.458;7.256;2024-03-07T02:00:26;60.35;;;28.25;;
19569;SDS011;9931;51.458;7.256;2024-03-07T02:02:53;70.80;;;29.02;;
19569;SDS011;9931;51.458;7.256;2024-03-07T02:05:18;60.30;;;27.90;;
19569;SDS011;9931;51.458;7.256;2024-03-07T02:07:43;65.70;;;27.88;;
19569;SDS011;9931;51.458;7.256;2024-03-07T02:10:09;58.83;;;27.48;;
19569;SDS011;9931;51.458;7.256;2024-03-07T02:12:34;90.15;;;29.48;;
19569;SDS011;9931;51.458;7.256;2024-03-07T02:14:59;66.40;;;27.50;;
19569;SDS011;9931;51.458;7.256;2024-03-07T02:17:25;90.72;;;28.92;;
19569;SDS011;9931;51.458;7.256;2024-03-07T02:19:50;68.10;;;27.30;;
19569;SDS011;9931;51.458;7.256;2024-03-07T02:22:15;62.90;;;27.17;;
19569;SDS011;9931;51.458;7.256;2024-03-07T02:24:40;47.92;;;25.95;;
19569;SDS011;9931;51.458;7.256;2024-03-07T02:27:06;73.13;;;27.63;;
19569;SDS011;9931;51.458;7.256;2024-03-07T02:29:32;56.47;;;27.17;;
19569;SDS011;9931;51.458;7.256;2024-03-07T02:31:58;66.15;;;27.35;;
19569;SDS011;9931;51.458;7.256;2024-03-07T02:34:23;65.00;;;27.43;;
19569;SDS011;9931;51.458;7.256;2024-03-07T02:36:48;87.82;;;28.98;;
19569;SDS011;9931;51.458;7.256;2024-03-07T02:39:13;84.43;;;28.67;;
19569;SDS011;9931;51.458;7.256;2024-03-07T02:41:38;51.27;;;26.53;;
19569;SDS011;9931;51.458;7.256;2024-03-07T02:44:03;56.28;;;26.48;;
19569;SDS011;9931;51.458;7.256;2024-03-07T02:46:29;68.45;;;27.38;;
19569;SDS011;9931;51.458;7.256;2024-03-07T02:48:54;71.15;;;27.35;;
19569;SDS011;9931;51.458;7.256;2024-03-07T02:51:19;60.67;;;26.53;;
19569;SDS011;9931;51.458;7.256;2024-03-07T02:53:45;94.82;;;28.63;;
19569;SDS011;9931;51.458;7.256;2024-03-07T02:56:10;57.90;;;26.67;;
19569;SDS011;9931;51.458;7.256;2024-03-07T02:58:36;77.82;;;27.55;;
19569;SDS011;9931;51.458;7.256;2024-03-07T03:01:01;49.70;;;25.95;;
19569;SDS011;9931;51.458;7.256;2024-03-07T03:03:30;57.92;;;26.42;;
19569;SDS011;9931;51.458;7.256;2024-03-07T03:05:56;93.00;;;29.08;;
19569;SDS011;9931;51.458;7.256;2024-03-07T03:08:22;64.85;;;27.17;;
19569;SDS011;9931;51.458;7.256;2024-03-07T03:10:47;74.88;;;26.98;;
19569;SDS011;9931;51.458;7.256;2024-03-07T03:13:12;55.00;;;26.25;;
19569;SDS011;9931;51.458;7.256;2024-03-07T03:15:38;59.13;;;26.45;;
19569;SDS011;9931;51.458;7.256;2024-03-07T03:18:03;57.38;;;26.30;;
19569;SDS011;9931;51.458;7.256;2024-03-07T03:20:29;52.92;;;25.88;;
19569;SDS011;9931;51.458;7.256;2024-03-07T03:23:03;61.80;;;25.70;;
19569;SDS011;9931;51.458;7.256;2024-03-07T03:25:28;42.75;;;25.17;;
19569;SDS011;9931;51.458;7.256;2024-03-07T03:27:54;63.95;;;26.00;;
19569;SDS011;9931;51.458;7.256;2024-03-07T03:30:19;57.43;;;26.03;;
19569;SDS011;9931;51.458;7.256;2024-03-07T03:32:46;70.90;;;26.63;;
19569;SDS011;9931;51.458;7.256;2024-03-07T03:35:12;54.50;;;25.55;;
19569;SDS011;9931;51.458;7.256;2024-03-07T03:37:41;60.00;;;25.83;;
19569;SDS011;9931;51.458;7.256;2024-03-07T03:40:07;54.30;;;25.40;;
19569;SDS011;9931;51.458;7.256;2024-03-07T03:42:34;57.03;;;25.65;;
19569;SDS011;9931;51.458;7.256;2024-03-07T03:44:59;82.32;;;26.80;;
19569;SDS011;9931;51.458;7.256;2024-03-07T03:47:24;49.70;;;24.85;;
19569;SDS011;9931;51.458;7.256;2024-03-07T03:49:49;51.72;;;25.00;;
19569;SDS011;9931;51.458;7.256;2024-03-07T03:52:15;42.78;;;24.15;;
19569;SDS011;9931;51.458;7.256;2024-03-07T03:54:41;60.92;;;24.88;;
19569;SDS011;9931;51.458;7.256;2024-03-07T03:57:06;59.03;;;24.43;;
19569;SDS011;9931;51.458;7.256;2024-03-07T03:59:32;66.55;;;25.02;;
19569;SDS011;9931;51.458;7.256;2024-03-07T04:01:57;65.33;;;24.73;;
19569;SDS011;9931;51.458;7.256;2024-03-07T04:04:23;73.20;;;25.23;;
19569;SDS011;9931;51.458;7.256;2024-03-07T04:06:50;55.03;;;23.80;;
19569;SDS011;9931;51.458;7.256;2024-03-07T04:09:16;106.55;;;26.42;;
19569;SDS011;9931;51.458;7.256;2024-03-07T04:11:41;53.75;;;23.45;;
19569;SDS011;9931;51.458;7.256;2024-03-07T04:14:06;56.08;;;23.73;;
19569;SDS011;9931;51.458;7.256;2024-03-07T04:16:31;49.95;;;22.83;;
19569;SDS011;9931;51.458;7.256;2024-03-07T04:18:56;55.15;;;23.08;;
19569;SDS011;9931;51.458;7.256;2024-03-07T04:21:21;57.13;;;23.00;;
19569;SDS011;9931;51.458;7.256;2024-03-07T04:23:47;57.53;;;22.70;;
19569;SDS011;9931;51.458;7.256;2024-03-07T04:26:12;46.67;;;22.17;;
19569;SDS011;9931;51.458;7.256;2024-03-07T04:28:38;53.00;;;22.77;;
19569;SDS011;9931;51.458;7.256;2024-03-07T04:31:04;52.55;;;22.70;;
19569;SDS011;9931;51.458;7.256;2024-03-07T04:33:29;51.87;;;22.57;;
19569;SDS011;9931;51.458;7.256;2024-03-07T04:35:54;53.67;;;22.87;;
19569;SDS011;9931;51.458;7.256;2024-03-07T04:38:19;57.20;;;23.07;;
19569;SDS011;9931;51.458;7.256;2024-03-07T04:40:44;50.43;;;22.33;;
19569;SDS011;9931;51.458;7.256;2024-03-07T04:43:09;49.90;;;22.52;;
19569;SDS011;9931;51.458;7.256;2024-03-07T04:45:35;43.85;;;21.90;;
19569;SDS011;9931;51.458;7.256;2024-03-07T04:48:00;55.75;;;23.92;;
19569;SDS011;9931;51.458;7.256;2024-03-07T04:50:25;92.47;;;27.30;;
19569;SDS011;9931;51.458;7.256;2024-03-07T04:52:51;47.42;;;21.23;;
19569;SDS011;9931;51.458;7.256;2024-03-07T04:55:16;42.83;;;20.70;;
19569;SDS011;9931;51.458;7.256;2024-03-07T04:57:42;75.80;;;23.17;;
19569;SDS011;9931;51.458;7.256;2024-03-07T05:00:10;39.72;;;20.88;;
19569;SDS011;9931;51.458;7.256;2024-03-07T05:02:42;48.08;;;20.40;;
19569;SDS011;9931;51.458;7.256;2024-03-07T05:05:07;68.72;;;21.58;;
19569;SDS011;9931;51.458;7.256;2024-03-07T05:07:32;44.15;;;20.50;;
19569;SDS011;9931;51.458;7.256;2024-03-07T05:09:58;59.15;;;21.25;;
19569;SDS011;9931;51.458;7.256;2024-03-07T05:12:23;43.77;;;20.87;;
19569;SDS011;9931;51.458;7.256;2024-03-07T05:14:48;37.53;;;20.63;;
19569;SDS011;9931;51.458;7.256;2024-03-07T05:17:13;42.53;;;21.23;;
19569;SDS011;9931;51.458;7.256;2024-03-07T05:19:38;47.97;;;21.67;;
19569;SDS011;9931;51.458;7.256;2024-03-07T05:22:04;52.80;;;21.67;;
19569;SDS011;9931;51.458;7.256;2024-03-07T05:24:32;45.40;;;21.83;;
19569;SDS011;9931;51.458;7.256;2024-03-07T05:26:58;52.75;;;22.20;;
19569;SDS011;9931;51.458;7.256;2024-03-07T05:29:24;42.05;;;21.13;;
19569;SDS011;9931;51.458;7.256;2024-03-07T05:31:49;43.55;;;21.67;;
19569;SDS011;9931;51.458;7.256;2024-03-07T05:34:15;45.20;;;21.42;;
19569;SDS011;9931;51.458;7.256;2024-03-07T05:36:43;46.10;;;21.63;;
19569;SDS011;9931;51.458;7.256;2024-03-07T05:39:13;78.88;;;23.50;;
19569;SDS011;9931;51.458;7.256;2024-03-07T05:41:40;38.10;;;20.73;;
19569;SDS011;9931;51.458;7.256;2024-03-07T05:44:05;44.70;;;20.75;;
19569;SDS011;9931;51.458;7.256;2024-03-07T05:46:37;35.08;;;20.23;;
19569;SDS011;9931;51.458;7.256;2024-03-07T05:49:06;66.90;;;22.15;;
19569;SDS011;9931;51.458;7.256;2024-03-07T05:51:31;50.65;;;21.20;;
19569;SDS011;9931;51.458;7.256;2024-03-07T05:53:57;64.20;;;22.00;;
19569;SDS011;9931;51.458;7.256;2024-03-07T05:56:22;42.60;;;20.93;;
19569;SDS011;9931;51.458;7.256;2024-03-07T05:58:47;44.97;;;20.77;;
19569;SDS011;9931;51.458;7.256;2024-03-07T06:01:12;63.80;;;21.95;;
19569;SDS011;9931;51.458;7.256;2024-03-07T06:03:39;55.85;;;21.45;;
19569;SDS011;9931;51.458;7.256;2024-03-07T06:06:04;47.22;;;21.33;;
19569;SDS011;9931;51.458;7.256;2024-03-07T06:08:31;50.50;;;21.20;;
19569;SDS011;9931;51.458;7.256;2024-03-07T06:10:56;42.10;;;20.67;;
19569;SDS011;9931;51.458;7.256;2024-03-07T06:13:22;44.58;;;20.60;;
19569;SDS011;9931;51.458;7.256;2024-03-07T06:15:48;44.07;;;20.13;;
19569;SDS011;9931;51.458;7.256;2024-03-07T06:18:13;42.87;;;20.17;;
19569;SDS011;9931;51.458;7.256;2024-03-07T06:20:42;42.47;;;20.33;;
19569;SDS011;9931;51.458;7.256;2024-03-07T06:23:07;30.05;;;19.65;;
19569;SDS011;9931;51.458;7.256;2024-03-07T06:25:33;38.58;;;19.38;;
19569;SDS011;9931;51.458;7.256;2024-03-07T06:28:01;44.88;;;19.48;;
19569;SDS011;9931;51.458;7.256;2024-03-07T06:30:34;43.95;;;18.67;;
19569;SDS011;9931;51.458;7.256;2024-03-07T06:32:59;69.75;;;20.45;;
19569;SDS011;9931;51.458;7.256;2024-03-07T06:35:24;56.33;;;20.47;;
19569;SDS011;9931;51.458;7.256;2024-03-07T06:37:49;45.10;;;19.73;;
19569;SDS011;9931;51.458;7.256;2024-03-07T06:40:15;41.97;;;19.52;;
19569;SDS011;9931;51.458;7.256;2024-03-07T06:42:46;64.57;;;21.48;;
19569;SDS011;9931;51.458;7.256;2024-03-07T06:45:11;46.60;;;21.02;;
19569;SDS011;9931;51.458;7.256;2024-03-07T06:47:37;67.00;;;22.48;;
19569;SDS011;9931;51.458;7.256;2024-03-07T06:50:02;55.70;;;22.73;;
19569;SDS011;9931;51.458;7.256;2024-03-07T06:52:27;56.25;;;21.98;;
19569;SDS011;9931;51.458;7.256;2024-03-07T06:54:52;45.15;;;21.35;;
19569;SDS011;9931;51.458;7.256;2024-03-07T06:57:18;42.83;;;21.48;;
19569;SDS011;9931;51.458;7.256;2024-03-07T06:59:43;41.50;;;21.77;;
19569;SDS011;9931;51.458;7.256;2024-03-07T07:02:08;38.23;;;21.97;;
19569;SDS011;9931;51.458;7.256;2024-03-07T07:04:33;35.23;;;22.17;;
19569;SDS011;9931;51.458;7.256;2024-03-07T07:07:06;46.17;;;23.08;;
19569;SDS011;9931;51.458;7.256;2024-03-07T07:09:32;48.50;;;23.80;;
19569;SDS011;9931;51.458;7.256;2024-03-07T07:11:57;56.37;;;24.37;;
19569;SDS011;9931;51.458;7.256;2024-03-07T07:14:22;60.73;;;25.57;;
19569;SDS011;9931;51.458;7.256;2024-03-07T07:16:47;53.93;;;24.33;;
19569;SDS011;9931;51.458;7.256;2024-03-07T07:19:13;105.95;;;28.25;;
19569;SDS011;9931;51.458;7.256;2024-03-07T07:21:38;50.70;;;24.83;;
19569;SDS011;9931;51.458;7.256;2024-03-07T07:24:04;61.10;;;26.08;;
19569;SDS011;9931;51.458;7.256;2024-03-07T07:26:29;81.05;;;27.40;;
19569;SDS011;9931;51.458;7.256;2024-03-07T07:28:54;62.65;;;26.77;;
19569;SDS011;9931;51.458;7.256;2024-03-07T07:31:19;57.20;;;26.27;;
19569;SDS011;9931;51.458;7.256;2024-03-07T07:33:44;60.90;;;26.90;;
19569;SDS011;9931;51.458;7.256;2024-03-07T07:36:10;46.70;;;26.13;;
19569;SDS011;9931;51.458;7.256;2024-03-07T07:38:35;72.82;;;28.48;;
19569;SDS011;9931;51.458;7.256;2024-03-07T07:41:00;66.77;;;27.80;;
19569;SDS011;9931;51.458;7.256;2024-03-07T07:43:26;61.03;;;28.10;;
19569;SDS011;9931;51.458;7.256;2024-03-07T07:45:51;63.78;;;28.63;;
19569;SDS011;9931;51.458;7.256;2024-03-07T07:48:16;48.30;;;27.60;;
19569;SDS011;9931;51.458;7.256;2024-03-07T07:50:44;61.10;;;27.95;;
19569;SDS011;9931;51.458;7.256;2024-03-07T07:53:09;70.77;;;28.83;;
19569;SDS011;9931;51.458;7.256;2024-03-07T07:55:35;59.00;;;27.42;;
19569;SDS011;9931;51.458;7.256;2024-03-07T07:58:01;63.42;;;27.90;;
19569;SDS011;9931;51.458;7.256;2024-03-07T08:00:29;56.60;;;28.27;;
19569;SDS011;9931;51.458;7.256;2024-03-07T08:02:56;64.10;;;29.70;;
19569;SDS011;9931;51.458;7.256;2024-03-07T08:05:22;56.85;;;29.10;;
19569;SDS011;9931;51.458;7.256;2024-03-07T08:07:50;57.30;;;29.60;;
19569;SDS011;9931;51.458;7.256;2024-03-07T08:10:17;59.90;;;28.98;;
19569;SDS011;9931;51.458;7.256;2024-03-07T08:12:42;63.78;;;30.88;;
19569;SDS011;9931;51.458;7.256;2024-03-07T08:15:11;64.97;;;31.20;;
19569;SDS011;9931;51.458;7.256;2024-03-07T08:17:38;69.80;;;31.73;;
19569;SDS011;9931;51.458;7.256;2024-03-07T08:20:04;69.38;;;32.63;;
19569;SDS011;9931;51.458;7.256;2024-03-07T08:22:35;72.78;;;32.53;;
19569;SDS011;9931;51.458;7.256;2024-03-07T08:25:00;71.17;;;31.50;;
19569;SDS011;9931;51.458;7.256;2024-03-07T08:27:25;63.10;;;30.60;;
19569;SDS011;9931;51.458;7.256;2024-03-07T08:29:50;63.30;;;31.60;;
19569;SDS011;9931;51.458;7.256;2024-03-07T08:32:15;70.20;;;31.87;;
19569;SDS011;9931;51.458;7.256;2024-03-07T08:34:41;83.67;;;31.83;;
19569;SDS011;9931;51.458;7.256;2024-03-07T08:37:06;71.10;;;29.67;;
19569;SDS011;9931;51.458;7.256;2024-03-07T08:39:31;57.67;;;28.45;;
19569;SDS011;9931;51.458;7.256;2024-03-07T08:41:57;65.73;;;29.17;;
19569;SDS011;9931;51.458;7.256;2024-03-07T08:44:22;61.42;;;27.65;;
19569;SDS011;9931;51.458;7.256;2024-03-07T08:46:47;56.33;;;27.40;;
19569;SDS011;9931;51.458;7.256;2024-03-07T08:49:12;102.65;;;30.42;;
19569;SDS011;9931;51.458;7.256;2024-03-07T08:51:41;75.80;;;29.65;;
19569;SDS011;9931;51.458;7.256;2024-03-07T08:54:07;56.90;;;28.40;;
19569;SDS011;9931;51.458;7.256;2024-03-07T08:56:32;44.93;;;26.93;;
19569;SDS011;9931;51.458;7.256;2024-03-07T08:58:57;68.65;;;29.00;;
19569;SDS011;9931;51.458;7.256;2024-03-07T09:01:22;69.60;;;29.00;;
19569;SDS011;9931;51.458;7.256;2024-03-07T09:03:48;65.68;;;28.90;;
19569;SDS011;9931;51.458;7.256;2024-03-07T09:06:13;59.47;;;28.10;;
19569;SDS011;9931;51.458;7.256;2024-03-07T09:08:40;59.97;;;28.73;;
19569;SDS011;9931;51.458;7.256;2024-03-07T09:11:05;64.93;;;28.95;;
19569;SDS011;9931;51.458;7.256;2024-03-07T09:13:31;58.63;;;28.10;;
19569;SDS011;9931;51.458;7.256;2024-03-07T09:15:56;59.57;;;28.20;;
19569;SDS011;9931;51.458;7.256;2024-03-07T09:18:21;49.90;;;27.00;;
19569;SDS011;9931;51.458;7.256;2024-03-07T09:20:48;53.88;;;27.50;;
19569;SDS011;9931;51.458;7.256;2024-03-07T09:23:13;67.03;;;28.02;;
19569;SDS011;9931;51.458;7.256;2024-03-07T09:25:39;61.88;;;28.92;;
19569;SDS011;9931;51.458;7.256;2024-03-07T09:28:05;50.17;;;27.25;;
19569;SDS011;9931;51.458;7.256;2024-03-07T09:30:31;55.33;;;28.55;;
19569;SDS011;9931;51.458;7.256;2024-03-07T09:32:56;58.88;;;29.30;;
19569;SDS011;9931;51.458;7.256;2024-03-07T09:35:21;64.10;;;29.03;;
19569;SDS011;9931;51.458;7.256;2024-03-07T09:37:46;51.55;;;28.85;;
19569;SDS011;9931;51.458;7.256;2024-03-07T09:40:13;74.15;;;30.75;;
19569;SDS011;9931;51.458;7.256;2024-03-07T09:42:42;64.35;;;29.48;;
19569;SDS011;9931;51.458;7.256;2024-03-07T09:45:08;81.80;;;31.38;;
19569;SDS011;9931;51.458;7.256;2024-03-07T09:47:35;57.15;;;29.65;;
19569;SDS011;9931;51.458;7.256;2024-03-07T09:50:00;79.87;;;32.20;;
19569;SDS011;9931;51.458;7.256;2024-03-07T09:52:26;64.72;;;29.80;;
19569;SDS011;9931;51.458;7.256;2024-03-07T09:54:52;70.47;;;30.63;;
19569;SDS011;9931;51.458;7.256;2024-03-07T09:57:18;60.55;;;29.33;;
19569;SDS011;9931;51.458;7.256;2024-03-07T09:59:43;57.80;;;29.75;;
19569;SDS011;9931;51.458;7.256;2024-03-07T10:02:11;59.92;;;29.55;;
19569;SDS011;9931;51.458;7.256;2024-03-07T10:04:44;58.35;;;30.05;;
19569;SDS011;9931;51.458;7.256;2024-03-07T10:07:15;65.47;;;29.25;;
19569;SDS011;9931;51.458;7.256;2024-03-07T10:09:41;83.57;;;57.33;;
19569;SDS011;9931;51.458;7.256;2024-03-07T10:12:06;79.07;;;46.17;;
19569;SDS011;9931;51.458;7.256;2024-03-07T10:14:34;85.68;;;62.03;;
19569;SDS011;9931;51.458;7.256;2024-03-07T10:17:00;78.95;;;58.78;;
19569;SDS011;9931;51.458;7.256;2024-03-07T10:19:25;111.68;;;98.70;;
19569;SDS011;9931;51.458;7.256;2024-03-07T10:21:50;80.97;;;63.03;;
19569;SDS011;9931;51.458;7.256;2024-03-07T10:24:17;75.10;;;50.92;;
19569;SDS011;9931;51.458;7.256;2024-03-07T10:26:42;92.75;;;46.67;;
19569;SDS011;9931;51.458;7.256;2024-03-07T10:29:08;136.85;;;47.90;;
19569;SDS011;9931;51.458;7.256;2024-03-07T10:31:34;93.20;;;61.92;;
19569;SDS011;9931;51.458;7.256;2024-03-07T10:34:02;100.53;;;61.95;;
19569;SDS011;9931;51.458;7.256;2024-03-07T10:36:28;94.72;;;51.67;;
19569;SDS011;9931;51.458;7.256;2024-03-07T10:38:56;82.95;;;52.42;;
19569;SDS011;9931;51.458;7.256;2024-03-07T10:41:21;74.20;;;41.13;;
19569;SDS011;9931;51.458;7.256;2024-03-07T10:43:51;84.85;;;68.20;;
19569;SDS011;9931;51.458;7.256;2024-03-07T10:46:19;102.60;;;63.45;;
19569;SDS011;9931;51.458;7.256;2024-03-07T10:48:45;100.22;;;83.43;;
19569;SDS011;9931;51.458;7.256;2024-03-07T10:53:53;96.32;;;65.88;;
19569;SDS011;9931;51.458;7.256;2024-03-07T10:56:40;80.88;;;56.78;;
19569;SDS011;9931;51.458;7.256;2024-03-07T11:01:35;108.25;;;51.78;;
19569;SDS011;9931;51.458;7.256;2024-03-07T11:04:04;85.05;;;39.25;;
19569;SDS011;9931;51.458;7.256;2024-03-07T11:06:30;92.55;;;59.60;;
19569;SDS011;9931;51.458;7.256;2024-03-07T11:08:58;109.68;;;79.40;;
19569;SDS011;9931;51.458;7.256;2024-03-07T11:11:24;99.80;;;70.07;;
19569;SDS011;9931;51.458;7.256;2024-03-07T11:13:50;102.40;;;60.42;;
19569;SDS011;9931;51.458;7.256;2024-03-07T11:16:18;87.55;;;60.20;;
19569;SDS011;9931;51.458;7.256;2024-03-07T11:19:17;79.47;;;42.63;;
19569;SDS011;9931;51.458;7.256;2024-03-07T11:21:42;70.10;;;55.83;;
19569;SDS011;9931;51.458;7.256;2024-03-07T11:24:08;92.38;;;71.07;;
19569;SDS011;9931;51.458;7.256;2024-03-07T11:26:34;158.80;;;145.30;;
19569;SDS011;9931;51.458;7.256;2024-03-07T11:28:59;99.55;;;46.53;;
19569;SDS011;9931;51.458;7.256;2024-03-07T11:31:26;86.55;;;38.47;;
19569;SDS011;9931;51.458;7.256;2024-03-07T11:36:42;118.38;;;97.63;;
19569;SDS011;9931;51.458;7.256;2024-03-07T11:39:22;126.32;;;44.75;;
19569;SDS011;9931;51.458;7.256;2024-03-07T11:41:56;121.30;;;63.47;;
19569;SDS011;9931;51.458;7.256;2024-03-07T11:44:21;108.87;;;67.23;;
19569;SDS011;9931;51.458;7.256;2024-03-07T11:46:46;110.63;;;70.30;;
19569;SDS011;9931;51.458;7.256;2024-03-07T11:49:12;169.10;;;104.40;;
19569;SDS011;9931;51.458;7.256;2024-03-07T11:51:38;116.80;;;69.85;;
19569;SDS011;9931;51.458;7.256;2024-03-07T11:54:04;103.68;;;45.78;;
19569;SDS011;9931;51.458;7.256;2024-03-07T11:56:29;95.38;;;42.38;;
19569;SDS011;9931;51.458;7.256;2024-03-07T11:58:55;79.22;;;40.45;;
19569;SDS011;9931;51.458;7.256;2024-03-07T12:01:22;82.32;;;39.47;;
19569;SDS011;9931;51.458;7.256;2024-03-07T12:03:50;72.40;;;38.45;;
19569;SDS011;9931;51.458;7.256;2024-03-07T12:06:17;85.45;;;49.80;;
19569;SDS011;9931;51.458;7.256;2024-03-07T12:08:44;93.20;;;56.15;;
19569;SDS011;9931;51.458;7.256;2024-03-07T12:11:10;92.25;;;49.03;;
19569;SDS011;9931;51.458;7.256;2024-03-07T12:13:40;74.32;;;52.67;;
19569;SDS011;9931;51.458;7.256;2024-03-07T12:16:05;78.60;;;44.53;;
19569;SDS011;9931;51.458;7.256;2024-03-07T12:18:33;126.63;;;62.88;;
19569;SDS011;9931;51.458;7.256;2024-03-07T12:20:58;80.57;;;37.67;;
19569;SDS011;9931;51.458;7.256;2024-03-07T12:23:24;84.82;;;38.22;;
19569;SDS011;9931;51.458;7.256;2024-03-07T12:26:00;74.20;;;37.15;;
19569;SDS011;9931;51.458;7.256;2024-03-07T12:28:28;71.78;;;36.40;;
19569;SDS011;9931;51.458;7.256;2024-03-07T12:30:58;91.28;;;51.03;;
19569;SDS011;9931;51.458;7.256;2024-03-07T12:33:27;112.03;;;68.40;;
19569;SDS011;9931;51.458;7.256;2024-03-07T12:35:53;139.15;;;64.82;;
19569;SDS011;9931;51.458;7.256;2024-03-07T12:38:24;123.72;;;97.20;;
19569;SDS011;9931;51.458;7.256;2024-03-07T12:41:04;96.65;;;52.17;;
19569;SDS011;9931;51.458;7.256;2024-03-07T12:43:33;195.25;;;177.70;;
19569;SDS011;9931;51.458;7.256;2024-03-07T12:45:59;97.63;;;80.60;;
19569;SDS011;9931;51.458;7.256;2024-03-07T12:48:24;83.70;;;45.70;;
19569;SDS011;9931;51.458;7.256;2024-03-07T12:50:49;79.15;;;36.28;;
19569;SDS011;9931;51.458;7.256;2024-03-07T12:53:18;101.03;;;48.88;;
19569;SDS011;9931;51.458;7.256;2024-03-07T12:55:44;90.38;;;53.95;;
19569;SDS011;9931;51.458;7.256;2024-03-07T12:58:09;86.63;;;37.63;;
19569;SDS011;9931;51.458;7.256;2024-03-07T13:00:36;75.70;;;35.97;;
19569;SDS011;9931;51.458;7.256;2024-03-07T13:03:01;82.20;;;37.30;;
19569;SDS011;9931;51.458;7.256;2024-03-07T13:05:27;89.45;;;36.88;;
19569;SDS011;9931;51.458;7.256;2024-03-07T13:07:52;71.50;;;35.60;;
19569;SDS011;9931;51.458;7.256;2024-03-07T13:10:18;77.13;;;35.60;;
19569;SDS011;9931;51.458;7.256;2024-03-07T13:12:44;60.13;;;35.00;;
19569;SDS011;9931;51.458;7.256;2024-03-07T13:15:10;80.75;;;37.45;;
19569;SDS011;9931;51.458;7.256;2024-03-07T13:17:36;78.45;;;37.45;;
19569;SDS011;9931;51.458;7.256;2024-03-07T13:20:01;69.60;;;35.95;;
19569;SDS011;9931;51.458;7.256;2024-03-07T13:22:26;67.10;;;36.38;;
19569;SDS011;9931;51.458;7.256;2024-03-07T13:24:52;76.82;;;37.03;;
19569;SDS011;9931;51.458;7.256;2024-03-07T13:27:17;76.63;;;36.13;;
19569;SDS011;9931;51.458;7.256;2024-03-07T13:29:50;76.53;;;36.63;;
19569;SDS011;9931;51.458;7.256;2024-03-07T13:32:16;76.90;;;37.15;;
19569;SDS011;9931;51.458;7.256;2024-03-07T13:34:41;76.78;;;36.88;;
19569;SDS011;9931;51.458;7.256;2024-03-07T13:37:07;79.38;;;36.72;;
19569;SDS011;9931;51.458;7.256;2024-03-07T13:39:35;76.15;;;36.35;;
19569;SDS011;9931;51.458;7.256;2024-03-07T13:42:00;62.15;;;35.53;;
19569;SDS011;9931;51.458;7.256;2024-03-07T13:44:26;89.40;;;38.45;;
19569;SDS011;9931;51.458;7.256;2024-03-07T13:46:52;73.35;;;37.20;;
19569;SDS011;9931;51.458;7.256;2024-03-07T13:49:19;112.43;;;39.55;;
19569;SDS011;9931;51.458;7.256;2024-03-07T13:51:48;75.32;;;36.17;;
19569;SDS011;9931;51.458;7.256;2024-03-07T13:54:19;82.93;;;36.40;;
19569;SDS011;9931;51.458;7.256;2024-03-07T13:57:21;91.15;;;38.25;;
19569;SDS011;9931;51.458;7.256;2024-03-07T14:05:13;73.35;;;36.35;;
19569;SDS011;9931;51.458;7.256;2024-03-07T14:07:50;62.35;;;35.22;;
19569;SDS011;9931;51.458;7.256;2024-03-07T14:31:29;85.75;;;38.83;;
19569;SDS011;9931;51.458;7.256;2024-03-07T14:34:01;117.30;;;42.05;;
19569;SDS011;9931;51.458;7.256;2024-03-07T14:36:40;97.00;;;43.55;;
19569;SDS011;9931;51.458;7.256;2024-03-07T14:39:09;111.68;;;42.60;;
19569;SDS011;9931;51.458;7.256;2024-03-07T14:41:52;94.68;;;40.70;;
19569;SDS011;9931;51.458;7.256;2024-03-07T14:44:19;94.22;;;40.53;;
19569;SDS011;9931;51.458;7.256;2024-03-07T14:46:45;83.40;;;40.72;;
19569;SDS011;9931;51.458;7.256;2024-03-07T14:49:12;109.43;;;41.95;;
19569;SDS011;9931;51.458;7.256;2024-03-07T14:51:38;82.38;;;39.17;;
19569;SDS011;9931;51.458;7.256;2024-03-07T14:54:04;87.13;;;39.15;;
19569;SDS011;9931;51.458;7.256;2024-03-07T14:56:29;81.93;;;38.08;;
19569;SDS011;9931;51.458;7.256;2024-03-07T14:58:54;88.05;;;38.10;;
19569;SDS011;9931;51.458;7.256;2024-03-07T15:01:19;97.80;;;39.27;;
19569;SDS011;9931;51.458;7.256;2024-03-07T15:03:44;76.83;;;37.17;;